Flugplatz Bohmte-Bad Essen (EDXD)

Hier findest Du alle Informationen zum Flugplatz Bohmte-Bad Essen (EDXD).

Informationen für Piloten zum Flugplatz Bohmte-Bad Essen

Hier findest Du alle relevanten Informationen, die Du als Pilot benötigst, um Bohmte-Bad Essen anzufliegen.

Flugplatz: Bohmte-Bad Essen ICAO-Code: EDXD
Frequenz Turm: 122,500 Mhz GAFOR Gebiet: 9
Frequenz Ground: 122,500 Mhz Mogas: ja
Platzrunde: S 700 ft Landegebühr: -
Platzhöhe: - Sunrise: 05:19 Uhr UTC
Pisten: 10/28 - 580 m x 30 m, GRAS Sunset: 17:15 Uhr UTC

Flugwetter am Flugplatz Bohmte-Bad Essen

Die METAR Information stammen aus EDDG (50.08 km entfernt).

METAR Code:
2022/09/14 10:50
EDDG 141050Z AUTO VRB02KT CAVOK 16/12 Q1006

Temperatur: 9,1 °C Niederschlag: - Wind: 0,9 kt (max.: 2,6 kt in Böen)
Temperatur (min.): 8,2 °C Luftdruck: 997 hPa Windrichtung: 231 °
Temperatur (max.): 9,7 °C Luftfeuchtigkeit: 87 % Bewölkung: 8/8

Flugschulen am Flugplatz Bohmte-Bad Essen

Am Flugplatz Bohmte-Bad Essen gibt es leider keine Flugschule.

Benachbarte Flugplätze und Flugschulen

Es gibt 11 weitere Flugplätze in einem Umkreis von 50 km um den Flugplatz Bohmte-Bad Essen.

Jetzt anmelden

Passwort vergessen

Umfrage Archiv

Sendet Ihr ADS-B und/oder FLARM?

Ja
83.8 %
Nein
16.2 %
Stimmen: 222 | Diskussion
Anzeige: Roland Aircraft
Statistik Alle Mitglieder

Aktuell sind 49 Besucher online, davon 2 Mitglieder und 47 Gäste.


Mitglieder online:
Maxi  Georg77 

Anzeige: ULPower Aero Engines Anzeige: Pocket FMS